createdAt,value
2019-06-08T00:01:20.592Z,18.80
2019-06-08T00:03:48.515Z,18.80
2019-06-08T00:06:16.737Z,18.70
2019-06-08T00:08:44.604Z,18.80
2019-06-08T00:11:12.746Z,18.80
2019-06-08T00:13:40.514Z,18.80
2019-06-08T00:16:08.136Z,18.70
2019-06-08T00:18:35.681Z,18.90
2019-06-08T00:21:03.367Z,18.70
2019-06-08T00:23:30.997Z,18.40
2019-06-08T00:25:58.669Z,18.40
2019-06-08T00:28:26.293Z,18.50
2019-06-08T00:30:53.949Z,18.40
2019-06-08T00:33:22.624Z,18.30
2019-06-08T00:35:50.345Z,18.10
2019-06-08T00:38:18.829Z,18.10
2019-06-08T00:40:46.553Z,18.10
2019-06-08T00:43:15.129Z,18.10
2019-06-08T00:45:42.845Z,18.00
2019-06-08T00:48:10.496Z,17.90
2019-06-08T00:50:38.134Z,18.00
2019-06-08T00:53:05.812Z,18.00
2019-06-08T00:55:33.471Z,18.00
2019-06-08T00:58:01.117Z,18.10
2019-06-08T01:00:28.758Z,18.10
2019-06-08T01:02:56.382Z,18.10
2019-06-08T01:05:24.079Z,18.10
2019-06-08T01:07:51.770Z,18.10
2019-06-08T01:10:19.817Z,18.00
2019-06-08T01:12:47.446Z,18.00
2019-06-08T01:15:15.367Z,18.10
2019-06-08T01:17:43.138Z,18.10
2019-06-08T01:20:10.925Z,18.10
2019-06-08T01:22:38.580Z,18.20
2019-06-08T01:25:06.614Z,18.10
2019-06-08T01:27:34.237Z,18.00
2019-06-08T01:30:02.173Z,18.10
2019-06-08T01:32:30.619Z,18.00
2019-06-08T01:34:58.356Z,18.00
2019-06-08T01:37:27.024Z,18.00
2019-06-08T01:39:54.780Z,17.90
2019-06-08T01:42:23.414Z,17.80
2019-06-08T01:44:51.224Z,17.70
2019-06-08T01:47:18.954Z,17.80
2019-06-08T01:49:46.608Z,17.80
2019-06-08T01:52:14.308Z,17.80
2019-06-08T01:54:42.058Z,17.70
2019-06-08T01:57:09.711Z,17.70
2019-06-08T01:59:37.349Z,17.60
2019-06-08T02:02:05.307Z,17.60
2019-06-08T02:04:33.513Z,17.80
2019-06-08T02:07:02.442Z,18.00
2019-06-08T02:09:30.624Z,18.00
2019-06-08T02:11:59.459Z,18.10
2019-06-08T02:14:27.174Z,18.20
2019-06-08T02:16:56.052Z,18.10
2019-06-08T02:19:23.748Z,18.00
2019-06-08T02:21:52.145Z,17.70
2019-06-08T02:24:20.300Z,17.70
2019-06-08T02:26:48.083Z,17.70
2019-06-08T02:29:16.043Z,17.50
2019-06-08T02:31:47.878Z,17.30
2019-06-08T02:34:13.954Z,17.30
2019-06-08T02:36:41.899Z,17.40
2019-06-08T02:39:10.027Z,17.40
2019-06-08T02:41:40.005Z,17.30
2019-06-08T02:44:08.018Z,17.40
2019-06-08T02:46:37.613Z,17.60
2019-06-08T02:49:05.793Z,17.60
2019-06-08T02:51:36.082Z,17.60
2019-06-08T02:54:04.321Z,17.60
2019-06-08T02:56:34.167Z,17.40
2019-06-08T02:59:03.401Z,17.20
2019-06-08T03:01:33.666Z,17.30
2019-06-08T03:04:01.515Z,17.10
2019-06-08T03:06:30.299Z,17.20
2019-06-08T03:09:02.110Z,17.20
2019-06-08T03:11:30.649Z,17.30
2019-06-08T03:13:58.288Z,17.30
2019-06-08T03:16:25.933Z,17.50
2019-06-08T03:18:53.562Z,17.50
2019-06-08T03:21:24.222Z,17.40
2019-06-08T03:23:51.843Z,17.40
2019-06-08T03:26:19.472Z,17.50
2019-06-08T03:28:47.116Z,17.70
2019-06-08T03:31:14.790Z,17.50
2019-06-08T03:33:50.809Z,17.50
2019-06-08T03:36:12.003Z,17.40
2019-06-08T03:38:40.308Z,17.60
2019-06-08T03:41:08.486Z,17.60
2019-06-08T03:43:37.613Z,17.60
2019-06-08T03:46:05.698Z,17.70
2019-06-08T03:48:34.907Z,17.70
2019-06-08T03:51:02.758Z,17.60
2019-06-08T03:53:30.374Z,17.60
2019-06-08T03:55:58.014Z,17.70
2019-06-08T03:58:25.709Z,17.60
2019-06-08T04:00:53.342Z,17.50
2019-06-08T04:03:20.986Z,17.40
2019-06-08T04:05:50.060Z,17.40
2019-06-08T04:08:17.838Z,17.50
2019-06-08T04:10:46.742Z,17.50
2019-06-08T04:13:15.615Z,17.30
2019-06-08T04:15:44.695Z,17.30
2019-06-08T04:18:12.813Z,17.30
2019-06-08T04:20:42.810Z,17.40
2019-06-08T04:23:10.133Z,17.50
2019-06-08T04:25:38.292Z,17.50
2019-06-08T04:28:06.179Z,17.50
2019-06-08T04:30:33.821Z,17.50
2019-06-08T04:33:01.450Z,17.60
2019-06-08T04:35:29.098Z,17.40
2019-06-08T04:37:56.724Z,17.30
2019-06-08T04:40:24.343Z,17.10
2019-06-08T04:42:51.986Z,17.10
2019-06-08T04:45:19.764Z,17.00
2019-06-08T04:47:48.344Z,17.00
2019-06-08T04:50:23.318Z,16.90
2019-06-08T04:52:47.476Z,17.10
2019-06-08T04:55:16.642Z,17.10
2019-06-08T04:57:47.581Z,17.10
2019-06-08T05:00:14.674Z,17.00
2019-06-08T05:02:44.688Z,16.90
2019-06-08T05:05:12.148Z,16.90
2019-06-08T05:07:41.450Z,16.90
2019-06-08T05:10:10.842Z,16.90
2019-06-08T05:12:39.225Z,16.80
2019-06-08T05:15:07.241Z,16.80
2019-06-08T05:17:34.859Z,16.80
2019-06-08T05:20:03.214Z,16.80
2019-06-08T05:22:31.011Z,16.90
2019-06-08T05:24:58.650Z,16.70
2019-06-08T05:27:26.257Z,16.70
2019-06-08T05:29:53.913Z,16.60
2019-06-08T05:32:21.535Z,16.60
2019-06-08T05:34:49.693Z,16.50
2019-06-08T05:37:17.573Z,16.50
2019-06-08T05:39:45.795Z,16.50
2019-06-08T05:42:13.765Z,16.60
2019-06-08T05:44:41.679Z,16.60
2019-06-08T05:47:10.353Z,16.70
2019-06-08T05:49:37.981Z,16.70
2019-06-08T05:52:05.689Z,16.80
2019-06-08T05:54:33.349Z,16.90
2019-06-08T05:57:00.993Z,16.80
2019-06-08T05:59:28.621Z,16.80
2019-06-08T06:01:57.269Z,16.90
2019-06-08T06:04:24.883Z,16.90
2019-06-08T06:06:52.553Z,17.00
2019-06-08T06:09:20.194Z,17.10
2019-06-08T06:11:48.909Z,17.10
2019-06-08T06:14:16.953Z,17.10
2019-06-08T06:16:44.930Z,17.10
2019-06-08T06:19:12.629Z,17.00
2019-06-08T06:21:41.003Z,17.00
2019-06-08T06:24:08.752Z,17.00
2019-06-08T06:26:36.385Z,17.00
2019-06-08T06:29:03.987Z,17.00
2019-06-08T06:31:31.649Z,17.00
2019-06-08T06:33:59.273Z,17.00
2019-06-08T06:36:27.002Z,17.00
2019-06-08T06:38:54.974Z,17.10
2019-06-08T06:41:22.698Z,17.30
2019-06-08T06:43:50.474Z,17.40
2019-06-08T06:46:18.186Z,17.20
2019-06-08T06:48:46.141Z,17.30
2019-06-08T06:51:25.817Z,17.30
2019-06-08T06:53:44.968Z,17.50
2019-06-08T06:56:12.863Z,17.60
2019-06-08T06:58:40.697Z,17.60
2019-06-08T07:01:08.673Z,17.80
2019-06-08T07:03:36.427Z,17.70
2019-06-08T07:06:04.319Z,17.70
2019-06-08T07:08:32.050Z,17.70
2019-06-08T07:10:59.927Z,17.90
2019-06-08T07:13:27.641Z,18.00
2019-06-08T07:15:58.153Z,18.10
2019-06-08T07:18:25.559Z,18.20
2019-06-08T07:20:54.373Z,18.40
2019-06-08T07:23:22.180Z,18.30
2019-06-08T07:25:50.472Z,18.30
2019-06-08T07:28:18.694Z,18.30
2019-06-08T07:30:47.407Z,18.30
2019-06-08T07:33:16.169Z,18.20
2019-06-08T07:35:43.991Z,18.30
2019-06-08T07:38:11.824Z,18.30
2019-06-08T07:40:39.543Z,18.40
2019-06-08T07:43:07.137Z,18.50
2019-06-08T07:45:34.877Z,18.60
2019-06-08T07:48:02.647Z,18.80
2019-06-08T07:50:30.595Z,18.80
2019-06-08T07:52:58.873Z,18.90
2019-06-08T07:55:26.587Z,19.00
2019-06-08T07:57:54.521Z,18.90
2019-06-08T08:00:22.617Z,18.90
2019-06-08T08:02:50.485Z,19.00
2019-06-08T08:05:18.156Z,19.20
2019-06-08T08:07:45.789Z,19.20
2019-06-08T08:10:14.160Z,19.20
2019-06-08T08:12:41.966Z,19.40
2019-06-08T08:15:10.005Z,19.40
2019-06-08T08:17:37.757Z,19.50
2019-06-08T08:20:05.691Z,19.40
2019-06-08T08:22:33.358Z,19.70
2019-06-08T08:25:04.372Z,19.80
2019-06-08T08:27:31.644Z,19.90
2019-06-08T08:30:01.727Z,19.90
2019-06-08T08:32:29.432Z,19.70
2019-06-08T08:35:00.298Z,19.70
2019-06-08T08:37:28.114Z,19.90
2019-06-08T08:39:58.565Z,20.00
2019-06-08T08:42:27.068Z,19.90
2019-06-08T08:44:58.639Z,19.90
2019-06-08T08:47:25.153Z,20.00
2019-06-08T08:49:54.012Z,20.00
2019-06-08T08:52:33.714Z,19.90
2019-06-08T08:54:52.338Z,19.90
2019-06-08T08:57:20.341Z,19.80
2019-06-08T08:59:50.378Z,19.80
2019-06-08T09:02:21.167Z,19.90
2019-06-08T09:04:47.706Z,19.90
2019-06-08T09:07:18.216Z,20.10
2019-06-08T09:09:45.269Z,20.20
2019-06-08T09:12:12.988Z,20.40
2019-06-08T09:14:41.546Z,20.40
2019-06-08T09:17:09.601Z,20.10
2019-06-08T09:19:38.209Z,20.10
2019-06-08T09:22:08.338Z,20.30
2019-06-08T09:24:35.782Z,20.40
2019-06-08T09:27:04.211Z,20.50
2019-06-08T09:29:32.149Z,20.50
2019-06-08T09:32:01.860Z,20.60
2019-06-08T09:34:29.925Z,20.60
2019-06-08T09:37:00.101Z,20.70
2019-06-08T09:39:28.640Z,20.80
2019-06-08T09:42:00.408Z,21.00
2019-06-08T09:44:28.094Z,20.90
2019-06-08T09:46:59.069Z,20.60
2019-06-08T09:49:28.009Z,20.70
2019-06-08T09:52:02.856Z,20.70
2019-06-08T09:54:30.587Z,20.70
2019-06-08T09:57:02.057Z,20.90
2019-06-08T09:59:28.534Z,21.00
2019-06-08T10:02:00.126Z,21.10
2019-06-08T10:04:29.071Z,21.20
2019-06-08T10:06:56.847Z,21.10
2019-06-08T10:09:25.139Z,21.00
2019-06-08T10:11:54.172Z,21.00
2019-06-08T10:14:21.953Z,21.10
2019-06-08T10:16:49.758Z,21.30
2019-06-08T10:19:18.679Z,21.40
2019-06-08T10:21:48.191Z,21.50
2019-06-08T10:24:16.202Z,21.70
2019-06-08T10:26:43.892Z,21.70
2019-06-08T10:29:11.818Z,21.60
2019-06-08T10:31:43.327Z,21.50
2019-06-08T10:34:11.258Z,21.30
2019-06-08T10:36:38.642Z,21.40
2019-06-08T10:39:11.085Z,21.40
2019-06-08T10:41:38.680Z,21.30
2019-06-08T10:44:08.571Z,21.50
2019-06-08T10:46:40.255Z,21.60
2019-06-08T10:49:08.538Z,21.50
2019-06-08T10:51:35.077Z,21.40
2019-06-08T10:54:04.288Z,21.60
2019-06-08T10:56:32.270Z,21.70
2019-06-08T10:59:02.323Z,21.70
2019-06-08T11:01:29.479Z,21.70
2019-06-08T11:03:58.449Z,21.80
2019-06-08T11:06:26.889Z,22.00
2019-06-08T11:08:54.598Z,22.00
2019-06-08T11:11:22.374Z,21.90
2019-06-08T11:13:50.492Z,21.80
2019-06-08T11:16:18.443Z,21.60
2019-06-08T11:18:50.712Z,21.70
2019-06-08T11:21:18.433Z,22.10
2019-06-08T11:23:59.851Z,22.30
2019-06-08T11:26:21.912Z,22.30
2019-06-08T11:28:44.493Z,22.40
2019-06-08T11:31:15.905Z,22.50
2019-06-08T11:33:42.745Z,22.60
2019-06-08T11:36:12.555Z,22.60
2019-06-08T11:38:40.013Z,22.60
2019-06-08T11:41:11.666Z,22.50
2019-06-08T11:43:38.143Z,22.20
2019-06-08T11:46:06.626Z,22.30
2019-06-08T11:48:34.393Z,22.00
2019-06-08T11:51:02.591Z,22.10
2019-06-08T11:53:30.311Z,22.40
2019-06-08T11:56:01.205Z,22.70
2019-06-08T11:58:30.874Z,22.70
2019-06-08T12:01:05.494Z,22.70
2019-06-08T12:03:33.589Z,22.80
2019-06-08T12:06:02.160Z,22.90
2019-06-08T12:08:30.319Z,23.00
2019-06-08T12:11:02.008Z,23.10
2019-06-08T12:13:27.908Z,23.30
2019-06-08T12:15:55.691Z,23.30
2019-06-08T12:18:23.612Z,23.40
2019-06-08T12:20:51.439Z,23.70
2019-06-08T12:23:19.113Z,23.50
2019-06-08T12:25:47.330Z,23.20
2019-06-08T12:28:15.080Z,23.40
2019-06-08T12:30:42.840Z,23.50
2019-06-08T12:33:12.415Z,23.40
2019-06-08T12:35:40.272Z,23.20
2019-06-08T12:38:09.930Z,23.10
2019-06-08T12:40:40.989Z,23.20
2019-06-08T12:43:09.602Z,23.30
2019-06-08T12:45:38.135Z,23.20
2019-06-08T12:48:08.852Z,23.20
2019-06-08T12:50:38.549Z,23.20
2019-06-08T12:53:11.242Z,23.50
2019-06-08T12:55:37.733Z,23.60
2019-06-08T12:58:08.122Z,23.50
2019-06-08T13:00:37.812Z,23.50
2019-06-08T13:03:05.045Z,23.40
2019-06-08T13:05:32.692Z,23.30
2019-06-08T13:08:00.357Z,23.30
2019-06-08T13:10:28.048Z,23.60
2019-06-08T13:12:58.171Z,23.40
2019-06-08T13:15:27.773Z,23.40
2019-06-08T13:17:54.941Z,23.50
2019-06-08T13:20:22.791Z,23.60
2019-06-08T13:22:50.489Z,23.60
2019-06-08T13:25:31.962Z,23.60
2019-06-08T13:27:48.058Z,23.50
2019-06-08T13:30:19.706Z,23.70
2019-06-08T13:32:48.291Z,23.90
2019-06-08T13:35:18.848Z,24.10
2019-06-08T13:37:47.328Z,24.20
2019-06-08T13:40:15.290Z,24.20
2019-06-08T13:42:42.957Z,24.20
2019-06-08T13:45:13.580Z,24.30
2019-06-08T13:47:41.509Z,24.30
2019-06-08T13:50:10.997Z,24.10
2019-06-08T13:52:39.504Z,23.80
2019-06-08T13:55:07.357Z,23.60
2019-06-08T13:57:35.120Z,23.70
2019-06-08T14:00:03.724Z,23.80
2019-06-08T14:02:31.869Z,24.00
2019-06-08T14:04:59.743Z,24.20
2019-06-08T14:07:34.230Z,24.40
2019-06-08T14:09:58.589Z,24.30
2019-06-08T14:12:30.687Z,24.00
2019-06-08T14:14:58.404Z,23.90
2019-06-08T14:17:27.131Z,24.00
2019-06-08T14:19:55.176Z,24.20
2019-06-08T14:22:24.284Z,24.40
2019-06-08T14:24:52.579Z,24.40
2019-06-08T14:27:21.307Z,24.30
2019-06-08T14:29:51.382Z,24.20
2019-06-08T14:32:19.575Z,24.10
2019-06-08T14:34:50.227Z,24.10
2019-06-08T14:37:18.061Z,24.30
2019-06-08T14:39:45.734Z,24.30
2019-06-08T14:42:13.413Z,24.30
2019-06-08T14:44:41.126Z,24.50
2019-06-08T14:47:14.387Z,24.70
2019-06-08T14:49:43.709Z,24.30
2019-06-08T14:52:11.565Z,24.10
2019-06-08T14:54:39.212Z,23.90
2019-06-08T14:57:07.863Z,23.80
2019-06-08T14:59:35.892Z,24.00
2019-06-08T15:02:03.593Z,24.20
2019-06-08T15:04:36.298Z,24.20
2019-06-08T15:07:01.074Z,24.20
2019-06-08T15:09:32.369Z,24.10
2019-06-08T15:12:00.096Z,23.90
2019-06-08T15:14:30.280Z,24.00
2019-06-08T15:17:01.837Z,23.90
2019-06-08T15:19:32.439Z,24.00
2019-06-08T15:22:00.484Z,24.20
2019-06-08T15:24:29.759Z,24.20
2019-06-08T15:26:58.380Z,23.90
2019-06-08T15:29:29.123Z,23.90
2019-06-08T15:31:58.051Z,23.80
2019-06-08T15:34:28.301Z,23.80
2019-06-08T15:36:57.444Z,23.90
2019-06-08T15:39:26.138Z,24.00
2019-06-08T15:41:54.290Z,24.00
2019-06-08T15:44:24.351Z,24.10
2019-06-08T15:46:51.533Z,24.30
2019-06-08T15:49:19.242Z,24.40
2019-06-08T15:51:48.101Z,24.00
2019-06-08T15:54:16.035Z,23.80
2019-06-08T15:56:49.501Z,23.80
2019-06-08T15:59:13.350Z,23.80
2019-06-08T16:01:43.144Z,23.70
2019-06-08T16:04:10.857Z,23.70
2019-06-08T16:06:38.559Z,23.70
2019-06-08T16:09:07.787Z,23.70
2019-06-08T16:11:35.690Z,23.70
2019-06-08T16:14:03.780Z,23.50
2019-06-08T16:16:31.900Z,23.40
2019-06-08T16:19:00.904Z,23.30
2019-06-08T16:21:29.611Z,23.30
2019-06-08T16:23:57.540Z,23.50
2019-06-08T16:26:25.601Z,23.70
2019-06-08T16:28:53.412Z,23.70
2019-06-08T16:31:21.177Z,23.80
2019-06-08T16:33:48.836Z,23.70
2019-06-08T16:36:16.553Z,24.00
2019-06-08T16:38:44.581Z,24.10
2019-06-08T16:41:12.462Z,23.90
2019-06-08T16:43:40.367Z,23.90
2019-06-08T16:46:08.389Z,23.90
2019-06-08T16:48:36.375Z,24.00
2019-06-08T16:51:04.702Z,24.00
2019-06-08T16:53:34.173Z,24.00
2019-06-08T16:56:02.201Z,23.80
2019-06-08T16:58:30.063Z,23.90
2019-06-08T17:00:58.889Z,23.70
2019-06-08T17:03:26.809Z,23.60
2019-06-08T17:05:54.449Z,23.60
2019-06-08T17:08:22.120Z,23.60
2019-06-08T17:10:49.861Z,23.50
2019-06-08T17:13:17.774Z,23.50
2019-06-08T17:15:45.705Z,23.60
2019-06-08T17:18:13.416Z,23.60
2019-06-08T17:20:41.076Z,23.50
2019-06-08T17:23:08.890Z,23.40
2019-06-08T17:25:36.641Z,23.20
2019-06-08T17:28:04.471Z,23.20
2019-06-08T17:30:33.793Z,23.30
2019-06-08T17:33:01.884Z,23.50
2019-06-08T17:35:42.327Z,23.60
2019-06-08T17:38:12.728Z,23.60
2019-06-08T17:40:40.595Z,23.70
2019-06-08T17:43:09.264Z,23.70
2019-06-08T17:45:38.381Z,23.90
2019-06-08T17:48:06.204Z,23.90
2019-06-08T17:50:38.683Z,24.00
2019-06-08T17:53:09.882Z,24.10
2019-06-08T17:55:45.121Z,23.90
2019-06-08T17:58:21.602Z,23.60
2019-06-08T18:01:47.806Z,23.60
2019-06-08T18:04:29.932Z,23.70
2019-06-08T18:07:19.089Z,23.60
2019-06-08T18:10:00.991Z,23.70
2019-06-08T18:12:39.684Z,23.70
2019-06-08T18:15:13.509Z,23.80
2019-06-08T18:17:43.773Z,23.70
2019-06-08T18:20:21.620Z,23.60
2019-06-08T18:22:53.248Z,23.70
2019-06-08T18:25:21.688Z,23.70
2019-06-08T18:28:08.949Z,23.90
2019-06-08T18:30:24.525Z,23.90
2019-06-08T18:32:58.019Z,23.80
2019-06-08T18:35:27.771Z,23.70
2019-06-08T18:37:57.618Z,23.60
2019-06-08T18:40:27.290Z,23.50
2019-06-08T18:42:57.634Z,23.50
2019-06-08T18:45:27.612Z,23.50
2019-06-08T18:47:57.587Z,23.40
2019-06-08T18:50:25.376Z,23.30
2019-06-08T18:52:53.369Z,23.30
2019-06-08T18:55:21.365Z,23.30
2019-06-08T18:57:49.349Z,23.30
2019-06-08T19:00:19.044Z,23.20
2019-06-08T19:02:50.030Z,23.20
2019-06-08T19:05:18.150Z,23.10
2019-06-08T19:07:50.039Z,23.10
2019-06-08T19:10:29.982Z,23.00
2019-06-08T19:13:00.160Z,22.90
2019-06-08T19:15:33.141Z,22.90
2019-06-08T19:18:01.066Z,22.90
2019-06-08T19:20:28.939Z,22.80
2019-06-08T19:22:57.896Z,22.90
2019-06-08T19:25:27.515Z,22.90
2019-06-08T19:27:57.808Z,22.80
2019-06-08T19:30:28.345Z,22.50
2019-06-08T19:32:57.898Z,22.10
2019-06-08T19:35:27.418Z,21.80
2019-06-08T19:37:58.163Z,21.30
2019-06-08T19:40:27.224Z,21.10
2019-06-08T19:42:58.072Z,20.90
2019-06-08T19:45:27.545Z,20.60
2019-06-08T19:47:57.585Z,20.40
2019-06-08T19:50:28.046Z,20.30
2019-06-08T19:52:55.043Z,20.20
2019-06-08T19:55:23.019Z,20.20
2019-06-08T19:57:51.879Z,20.10
2019-06-08T20:00:20.013Z,19.80
2019-06-08T20:02:53.163Z,19.50
2019-06-08T20:05:18.619Z,19.40
2019-06-08T20:07:47.054Z,19.20
2019-06-08T20:10:17.598Z,19.40
2019-06-08T20:12:47.949Z,19.40
2019-06-08T20:15:17.894Z,19.30
2019-06-08T20:17:48.510Z,19.20
2019-06-08T20:20:18.184Z,19.10
2019-06-08T20:22:46.697Z,19.00
2019-06-08T20:25:17.746Z,19.00
2019-06-08T20:27:45.366Z,19.00
2019-06-08T20:30:17.259Z,18.80
2019-06-08T20:32:44.785Z,18.90
2019-06-08T20:35:12.575Z,18.90
2019-06-08T20:37:41.526Z,18.70
2019-06-08T20:40:14.100Z,18.60
2019-06-08T20:42:39.748Z,18.50
2019-06-08T20:45:08.299Z,18.60
2019-06-08T20:47:38.912Z,18.60
2019-06-08T20:50:07.594Z,18.50
2019-06-08T20:52:37.747Z,18.30
2019-06-08T20:58:14.200Z,18.00
2019-06-08T21:00:43.499Z,18.00
2019-06-08T21:03:11.604Z,18.00
2019-06-08T21:05:39.544Z,18.00
2019-06-08T21:08:08.353Z,18.00
2019-06-08T21:10:37.788Z,17.90
2019-06-08T21:13:07.261Z,17.80
2019-06-08T21:15:38.015Z,17.90
2019-06-08T21:18:07.691Z,17.80
2019-06-08T21:20:34.721Z,17.80
2019-06-08T21:23:02.433Z,17.80
2019-06-08T21:25:30.165Z,17.60
2019-06-08T21:27:58.552Z,17.40
2019-06-08T21:30:28.482Z,17.40
2019-06-08T21:32:59.216Z,17.30
2019-06-08T21:35:25.664Z,17.30
2019-06-08T21:37:54.704Z,17.20
2019-06-08T21:40:23.137Z,17.10
2019-06-08T21:42:52.253Z,17.00
2019-06-08T21:45:20.414Z,16.90
2019-06-08T21:47:50.136Z,16.70
2019-06-08T21:50:18.614Z,16.40
2019-06-08T21:52:48.664Z,16.40
2019-06-08T21:55:17.761Z,16.60
2019-06-08T21:57:48.275Z,16.80
2019-06-08T22:00:35.699Z,16.90
2019-06-08T22:02:47.982Z,16.70
2019-06-08T22:05:15.809Z,16.60
2019-06-08T22:07:43.762Z,16.70
2019-06-08T22:10:11.713Z,16.70
2019-06-08T22:12:40.368Z,16.60
2019-06-08T22:15:08.617Z,16.50
2019-06-08T22:17:38.278Z,16.40
2019-06-08T22:20:07.988Z,16.40
2019-06-08T22:22:37.877Z,16.40
2019-06-08T22:25:08.177Z,16.30
2019-06-08T22:27:37.936Z,16.40
2019-06-08T22:30:10.689Z,16.50
2019-06-08T22:32:34.919Z,16.40
2019-06-08T22:35:03.577Z,16.20
2019-06-08T22:37:31.337Z,16.10
2019-06-08T22:40:00.902Z,16.00
2019-06-08T22:42:29.134Z,16.00
2019-06-08T22:44:59.275Z,15.90
2019-06-08T22:47:27.637Z,15.90
2019-06-08T22:49:58.745Z,15.80
2019-06-08T22:52:27.660Z,15.80
2019-06-08T22:55:00.425Z,15.60
2019-06-08T22:57:27.816Z,15.60
2019-06-08T23:00:13.238Z,15.90
2019-06-08T23:02:38.251Z,15.80
2019-06-08T23:05:08.880Z,15.80
2019-06-08T23:07:37.462Z,15.90
2019-06-08T23:10:08.629Z,15.90
2019-06-08T23:12:38.191Z,16.00
2019-06-08T23:15:07.824Z,16.10
2019-06-08T23:17:38.347Z,16.00
2019-06-08T23:20:08.340Z,15.90
2019-06-08T23:22:35.193Z,15.60
2019-06-08T23:25:04.414Z,15.50
2019-06-08T23:27:32.233Z,15.60
2019-06-08T23:30:00.560Z,15.60
2019-06-08T23:32:29.596Z,15.40
2019-06-08T23:34:58.645Z,15.40
2019-06-08T23:37:27.700Z,15.40
2019-06-08T23:39:57.599Z,15.30
2019-06-08T23:42:27.216Z,15.20
2019-06-08T23:44:54.679Z,15.00
2019-06-08T23:47:22.365Z,14.90
2019-06-08T23:49:50.041Z,14.70
2019-06-08T23:52:17.933Z,14.60
2019-06-08T23:54:47.670Z,14.70
2019-06-08T23:57:15.170Z,14.90
2019-06-08T23:59:42.812Z,15.10
